sensor_id;sensor_type;location;lat;lon;timestamp;P1;durP1;ratioP1;P2;durP2;ratioP2
57327;SDS011;43162;51.040;18.244;2024-02-23T00:01:26;10.50;;;5.80;;
57327;SDS011;43162;51.040;18.244;2024-02-23T00:03:51;7.60;;;5.80;;
57327;SDS011;43162;51.040;18.244;2024-02-23T00:06:17;8.80;;;5.70;;
57327;SDS011;43162;51.040;18.244;2024-02-23T00:08:43;6.30;;;5.50;;
57327;SDS011;43162;51.040;18.244;2024-02-23T00:11:09;7.10;;;5.10;;
57327;SDS011;43162;51.040;18.244;2024-02-23T00:13:35;11.70;;;6.30;;
57327;SDS011;43162;51.040;18.244;2024-02-23T00:16:00;10.50;;;5.00;;
57327;SDS011;43162;51.040;18.244;2024-02-23T00:18:26;9.10;;;5.60;;
57327;SDS011;43162;51.040;18.244;2024-02-23T00:20:51;6.00;;;4.80;;
57327;SDS011;43162;51.040;18.244;2024-02-23T00:23:17;8.60;;;5.30;;
57327;SDS011;43162;51.040;18.244;2024-02-23T00:25:44;7.00;;;5.60;;
57327;SDS011;43162;51.040;18.244;2024-02-23T00:28:10;8.70;;;6.50;;
57327;SDS011;43162;51.040;18.244;2024-02-23T00:30:35;9.10;;;6.60;;
57327;SDS011;43162;51.040;18.244;2024-02-23T00:33:01;7.80;;;6.00;;
57327;SDS011;43162;51.040;18.244;2024-02-23T00:35:27;7.50;;;5.60;;
57327;SDS011;43162;51.040;18.244;2024-02-23T00:37:52;7.70;;;5.80;;
57327;SDS011;43162;51.040;18.244;2024-02-23T00:40:17;9.00;;;5.40;;
57327;SDS011;43162;51.040;18.244;2024-02-23T00:42:43;7.60;;;5.30;;
57327;SDS011;43162;51.040;18.244;2024-02-23T00:45:09;7.30;;;5.20;;
57327;SDS011;43162;51.040;18.244;2024-02-23T00:47:34;7.50;;;6.20;;
57327;SDS011;43162;51.040;18.244;2024-02-23T00:50:01;9.10;;;6.20;;
57327;SDS011;43162;51.040;18.244;2024-02-23T00:52:27;7.80;;;6.00;;
57327;SDS011;43162;51.040;18.244;2024-02-23T00:54:52;8.30;;;6.10;;
57327;SDS011;43162;51.040;18.244;2024-02-23T00:57:18;7.10;;;5.20;;
57327;SDS011;43162;51.040;18.244;2024-02-23T00:59:51;10.80;;;6.50;;
57327;SDS011;43162;51.040;18.244;2024-02-23T01:02:16;7.70;;;5.40;;
57327;SDS011;43162;51.040;18.244;2024-02-23T01:04:42;8.50;;;5.70;;
57327;SDS011;43162;51.040;18.244;2024-02-23T01:07:07;7.50;;;5.30;;
57327;SDS011;43162;51.040;18.244;2024-02-23T01:09:33;8.40;;;5.30;;
57327;SDS011;43162;51.040;18.244;2024-02-23T01:11:58;8.20;;;5.60;;
57327;SDS011;43162;51.040;18.244;2024-02-23T01:14:25;7.40;;;5.00;;
57327;SDS011;43162;51.040;18.244;2024-02-23T01:16:50;5.80;;;4.50;;
57327;SDS011;43162;51.040;18.244;2024-02-23T01:19:16;6.00;;;4.30;;
57327;SDS011;43162;51.040;18.244;2024-02-23T01:21:42;9.70;;;5.20;;
57327;SDS011;43162;51.040;18.244;2024-02-23T01:24:07;6.10;;;4.60;;
57327;SDS011;43162;51.040;18.244;2024-02-23T01:26:33;4.70;;;3.90;;
57327;SDS011;43162;51.040;18.244;2024-02-23T01:28:59;6.70;;;4.70;;
57327;SDS011;43162;51.040;18.244;2024-02-23T01:31:25;5.70;;;5.10;;
57327;SDS011;43162;51.040;18.244;2024-02-23T01:33:50;5.70;;;4.70;;
57327;SDS011;43162;51.040;18.244;2024-02-23T01:36:16;8.10;;;5.00;;
57327;SDS011;43162;51.040;18.244;2024-02-23T01:38:43;4.40;;;3.60;;
57327;SDS011;43162;51.040;18.244;2024-02-23T01:41:08;6.60;;;4.70;;
57327;SDS011;43162;51.040;18.244;2024-02-23T01:43:34;5.60;;;4.30;;
57327;SDS011;43162;51.040;18.244;2024-02-23T01:46:00;6.40;;;4.00;;
57327;SDS011;43162;51.040;18.244;2024-02-23T01:48:25;4.60;;;4.00;;
57327;SDS011;43162;51.040;18.244;2024-02-23T01:50:52;5.40;;;4.70;;
57327;SDS011;43162;51.040;18.244;2024-02-23T01:53:19;8.00;;;5.60;;
57327;SDS011;43162;51.040;18.244;2024-02-23T01:55:46;5.00;;;4.20;;
57327;SDS011;43162;51.040;18.244;2024-02-23T01:58:12;6.80;;;5.30;;
57327;SDS011;43162;51.040;18.244;2024-02-23T02:00:38;7.30;;;5.90;;
57327;SDS011;43162;51.040;18.244;2024-02-23T02:03:04;7.10;;;5.40;;
57327;SDS011;43162;51.040;18.244;2024-02-23T02:05:29;8.90;;;5.20;;
57327;SDS011;43162;51.040;18.244;2024-02-23T02:07:55;6.60;;;5.40;;
57327;SDS011;43162;51.040;18.244;2024-02-23T02:10:24;7.80;;;6.40;;
57327;SDS011;43162;51.040;18.244;2024-02-23T02:12:50;7.50;;;5.80;;
57327;SDS011;43162;51.040;18.244;2024-02-23T02:15:16;7.30;;;5.00;;
57327;SDS011;43162;51.040;18.244;2024-02-23T02:17:42;6.30;;;5.40;;
57327;SDS011;43162;51.040;18.244;2024-02-23T02:20:10;8.70;;;5.50;;
57327;SDS011;43162;51.040;18.244;2024-02-23T02:22:37;8.00;;;5.80;;
57327;SDS011;43162;51.040;18.244;2024-02-23T02:25:03;8.10;;;5.40;;
57327;SDS011;43162;51.040;18.244;2024-02-23T02:27:29;9.70;;;6.30;;
57327;SDS011;43162;51.040;18.244;2024-02-23T02:29:55;9.50;;;5.90;;
57327;SDS011;43162;51.040;18.244;2024-02-23T02:32:20;7.60;;;5.50;;
57327;SDS011;43162;51.040;18.244;2024-02-23T02:34:46;8.40;;;6.10;;
57327;SDS011;43162;51.040;18.244;2024-02-23T02:37:12;10.50;;;6.50;;
57327;SDS011;43162;51.040;18.244;2024-02-23T02:39:37;9.20;;;6.60;;
57327;SDS011;43162;51.040;18.244;2024-02-23T02:42:03;9.20;;;5.90;;
57327;SDS011;43162;51.040;18.244;2024-02-23T02:44:28;8.60;;;6.30;;
57327;SDS011;43162;51.040;18.244;2024-02-23T02:46:56;8.50;;;6.00;;
57327;SDS011;43162;51.040;18.244;2024-02-23T02:49:22;10.40;;;5.80;;
57327;SDS011;43162;51.040;18.244;2024-02-23T02:51:48;7.40;;;5.50;;
57327;SDS011;43162;51.040;18.244;2024-02-23T02:54:13;10.80;;;6.40;;
57327;SDS011;43162;51.040;18.244;2024-02-23T02:56:42;9.20;;;6.40;;
57327;SDS011;43162;51.040;18.244;2024-02-23T02:59:09;11.50;;;6.40;;
57327;SDS011;43162;51.040;18.244;2024-02-23T03:01:35;8.20;;;5.80;;
57327;SDS011;43162;51.040;18.244;2024-02-23T03:04:01;9.70;;;5.20;;
57327;SDS011;43162;51.040;18.244;2024-02-23T03:06:26;10.70;;;5.50;;
57327;SDS011;43162;51.040;18.244;2024-02-23T03:08:52;9.60;;;5.60;;
57327;SDS011;43162;51.040;18.244;2024-02-23T03:11:17;10.00;;;6.60;;
57327;SDS011;43162;51.040;18.244;2024-02-23T03:13:43;9.10;;;6.00;;
57327;SDS011;43162;51.040;18.244;2024-02-23T03:16:17;9.30;;;5.40;;
57327;SDS011;43162;51.040;18.244;2024-02-23T03:18:43;7.10;;;4.60;;
57327;SDS011;43162;51.040;18.244;2024-02-23T03:21:11;7.50;;;4.90;;
57327;SDS011;43162;51.040;18.244;2024-02-23T03:23:36;7.70;;;5.70;;
57327;SDS011;43162;51.040;18.244;2024-02-23T03:26:02;10.90;;;7.10;;
57327;SDS011;43162;51.040;18.244;2024-02-23T03:28:28;9.80;;;6.90;;
57327;SDS011;43162;51.040;18.244;2024-02-23T03:30:53;10.40;;;7.50;;
57327;SDS011;43162;51.040;18.244;2024-02-23T03:33:19;30.60;;;11.10;;
57327;SDS011;43162;51.040;18.244;2024-02-23T03:35:44;27.80;;;9.70;;
57327;SDS011;43162;51.040;18.244;2024-02-23T03:38:10;23.20;;;8.60;;
57327;SDS011;43162;51.040;18.244;2024-02-23T03:40:35;32.00;;;11.60;;
57327;SDS011;43162;51.040;18.244;2024-02-23T03:43:01;22.20;;;7.50;;
57327;SDS011;43162;51.040;18.244;2024-02-23T03:45:27;36.50;;;10.00;;
57327;SDS011;43162;51.040;18.244;2024-02-23T03:47:53;29.70;;;9.90;;
57327;SDS011;43162;51.040;18.244;2024-02-23T03:50:19;42.50;;;11.40;;
57327;SDS011;43162;51.040;18.244;2024-02-23T03:52:44;50.20;;;13.20;;
57327;SDS011;43162;51.040;18.244;2024-02-23T03:55:10;43.40;;;11.90;;
57327;SDS011;43162;51.040;18.244;2024-02-23T03:57:36;47.00;;;12.00;;
57327;SDS011;43162;51.040;18.244;2024-02-23T04:00:02;49.50;;;13.20;;
57327;SDS011;43162;51.040;18.244;2024-02-23T04:02:28;42.80;;;13.20;;
57327;SDS011;43162;51.040;18.244;2024-02-23T04:04:54;60.90;;;16.50;;
57327;SDS011;43162;51.040;18.244;2024-02-23T04:07:20;49.00;;;14.60;;
57327;SDS011;43162;51.040;18.244;2024-02-23T04:09:45;46.10;;;14.40;;
57327;SDS011;43162;51.040;18.244;2024-02-23T04:12:20;47.60;;;12.30;;
57327;SDS011;43162;51.040;18.244;2024-02-23T04:14:46;38.50;;;12.20;;
57327;SDS011;43162;51.040;18.244;2024-02-23T04:17:12;43.30;;;16.00;;
57327;SDS011;43162;51.040;18.244;2024-02-23T04:19:40;22.40;;;7.90;;
57327;SDS011;43162;51.040;18.244;2024-02-23T04:22:06;47.20;;;13.60;;
57327;SDS011;43162;51.040;18.244;2024-02-23T04:24:38;56.60;;;17.30;;
57327;SDS011;43162;51.040;18.244;2024-02-23T04:27:05;47.60;;;14.50;;
57327;SDS011;43162;51.040;18.244;2024-02-23T04:29:31;35.10;;;11.70;;
57327;SDS011;43162;51.040;18.244;2024-02-23T04:31:57;37.40;;;11.90;;
57327;SDS011;43162;51.040;18.244;2024-02-23T04:34:24;49.00;;;16.10;;
57327;SDS011;43162;51.040;18.244;2024-02-23T04:36:50;30.70;;;11.00;;
57327;SDS011;43162;51.040;18.244;2024-02-23T04:39:15;38.70;;;12.10;;
57327;SDS011;43162;51.040;18.244;2024-02-23T04:41:41;30.70;;;11.20;;
57327;SDS011;43162;51.040;18.244;2024-02-23T04:44:06;24.60;;;9.40;;
57327;SDS011;43162;51.040;18.244;2024-02-23T04:46:32;37.60;;;13.30;;
57327;SDS011;43162;51.040;18.244;2024-02-23T04:49:00;41.30;;;12.50;;
57327;SDS011;43162;51.040;18.244;2024-02-23T04:51:25;16.30;;;7.00;;
57327;SDS011;43162;51.040;18.244;2024-02-23T04:53:51;14.20;;;5.50;;
57327;SDS011;43162;51.040;18.244;2024-02-23T04:56:17;10.50;;;6.00;;
57327;SDS011;43162;51.040;18.244;2024-02-23T04:58:43;7.20;;;5.00;;
57327;SDS011;43162;51.040;18.244;2024-02-23T05:01:09;9.10;;;5.10;;
57327;SDS011;43162;51.040;18.244;2024-02-23T05:03:36;13.80;;;6.50;;
57327;SDS011;43162;51.040;18.244;2024-02-23T05:06:04;8.00;;;5.30;;
57327;SDS011;43162;51.040;18.244;2024-02-23T05:08:30;10.70;;;5.80;;
57327;SDS011;43162;51.040;18.244;2024-02-23T05:10:59;12.70;;;5.20;;
57327;SDS011;43162;51.040;18.244;2024-02-23T05:13:24;7.50;;;4.90;;
57327;SDS011;43162;51.040;18.244;2024-02-23T05:15:50;8.30;;;4.80;;
57327;SDS011;43162;51.040;18.244;2024-02-23T05:18:15;11.30;;;5.20;;
57327;SDS011;43162;51.040;18.244;2024-02-23T05:20:41;7.10;;;4.70;;
57327;SDS011;43162;51.040;18.244;2024-02-23T05:23:07;11.10;;;6.00;;
57327;SDS011;43162;51.040;18.244;2024-02-23T05:25:32;6.10;;;4.30;;
57327;SDS011;43162;51.040;18.244;2024-02-23T05:27:58;7.10;;;4.70;;
57327;SDS011;43162;51.040;18.244;2024-02-23T05:30:24;9.80;;;5.80;;
57327;SDS011;43162;51.040;18.244;2024-02-23T05:32:51;6.00;;;4.10;;
57327;SDS011;43162;51.040;18.244;2024-02-23T05:35:17;5.80;;;4.80;;
57327;SDS011;43162;51.040;18.244;2024-02-23T05:37:43;14.70;;;6.90;;
57327;SDS011;43162;51.040;18.244;2024-02-23T05:40:08;8.80;;;4.90;;
57327;SDS011;43162;51.040;18.244;2024-02-23T05:42:37;9.70;;;5.90;;
57327;SDS011;43162;51.040;18.244;2024-02-23T05:45:03;6.70;;;4.80;;
57327;SDS011;43162;51.040;18.244;2024-02-23T05:47:40;13.70;;;6.40;;
57327;SDS011;43162;51.040;18.244;2024-02-23T05:50:07;18.20;;;8.30;;
57327;SDS011;43162;51.040;18.244;2024-02-23T05:52:34;12.20;;;6.10;;
57327;SDS011;43162;51.040;18.244;2024-02-23T05:55:00;12.00;;;5.60;;
57327;SDS011;43162;51.040;18.244;2024-02-23T05:57:26;22.20;;;7.50;;
57327;SDS011;43162;51.040;18.244;2024-02-23T05:59:52;14.70;;;6.70;;
57327;SDS011;43162;51.040;18.244;2024-02-23T06:02:18;10.30;;;5.60;;
57327;SDS011;43162;51.040;18.244;2024-02-23T06:04:44;15.10;;;6.00;;
57327;SDS011;43162;51.040;18.244;2024-02-23T06:07:10;11.80;;;5.10;;
57327;SDS011;43162;51.040;18.244;2024-02-23T06:09:36;13.30;;;6.00;;
57327;SDS011;43162;51.040;18.244;2024-02-23T06:12:02;27.10;;;9.30;;
57327;SDS011;43162;51.040;18.244;2024-02-23T06:14:28;10.60;;;5.50;;
57327;SDS011;43162;51.040;18.244;2024-02-23T06:16:54;8.50;;;5.80;;
57327;SDS011;43162;51.040;18.244;2024-02-23T06:19:19;19.30;;;8.10;;
57327;SDS011;43162;51.040;18.244;2024-02-23T06:21:48;14.00;;;6.00;;
57327;SDS011;43162;51.040;18.244;2024-02-23T06:24:17;18.60;;;7.30;;
57327;SDS011;43162;51.040;18.244;2024-02-23T06:26:42;36.40;;;11.90;;
57327;SDS011;43162;51.040;18.244;2024-02-23T06:29:08;19.70;;;9.10;;
57327;SDS011;43162;51.040;18.244;2024-02-23T06:31:36;34.10;;;11.70;;
57327;SDS011;43162;51.040;18.244;2024-02-23T06:34:03;26.00;;;10.40;;
57327;SDS011;43162;51.040;18.244;2024-02-23T06:36:29;34.70;;;11.60;;
57327;SDS011;43162;51.040;18.244;2024-02-23T06:38:55;9.20;;;5.80;;
57327;SDS011;43162;51.040;18.244;2024-02-23T06:41:20;9.80;;;5.50;;
57327;SDS011;43162;51.040;18.244;2024-02-23T06:43:46;18.40;;;8.70;;
57327;SDS011;43162;51.040;18.244;2024-02-23T06:46:11;14.10;;;6.70;;
57327;SDS011;43162;51.040;18.244;2024-02-23T06:48:38;7.50;;;4.70;;
57327;SDS011;43162;51.040;18.244;2024-02-23T06:51:04;8.80;;;5.30;;
57327;SDS011;43162;51.040;18.244;2024-02-23T06:53:30;15.10;;;4.20;;
57327;SDS011;43162;51.040;18.244;2024-02-23T06:55:55;7.60;;;4.20;;
57327;SDS011;43162;51.040;18.244;2024-02-23T06:58:21;6.70;;;4.40;;
57327;SDS011;43162;51.040;18.244;2024-02-23T07:00:46;12.20;;;4.90;;
57327;SDS011;43162;51.040;18.244;2024-02-23T07:03:12;6.70;;;4.50;;
57327;SDS011;43162;51.040;18.244;2024-02-23T07:05:37;5.80;;;4.50;;
57327;SDS011;43162;51.040;18.244;2024-02-23T07:08:03;9.20;;;6.20;;
57327;SDS011;43162;51.040;18.244;2024-02-23T07:10:29;8.70;;;5.70;;
57327;SDS011;43162;51.040;18.244;2024-02-23T07:12:55;11.40;;;6.40;;
57327;SDS011;43162;51.040;18.244;2024-02-23T07:15:21;7.20;;;5.30;;
57327;SDS011;43162;51.040;18.244;2024-02-23T07:17:47;9.60;;;6.20;;
57327;SDS011;43162;51.040;18.244;2024-02-23T07:20:13;9.20;;;5.40;;
57327;SDS011;43162;51.040;18.244;2024-02-23T07:22:38;9.60;;;5.90;;
57327;SDS011;43162;51.040;18.244;2024-02-23T07:25:07;10.60;;;5.90;;
57327;SDS011;43162;51.040;18.244;2024-02-23T07:27:32;9.00;;;5.30;;
57327;SDS011;43162;51.040;18.244;2024-02-23T07:29:58;9.40;;;5.30;;
57327;SDS011;43162;51.040;18.244;2024-02-23T07:32:23;7.50;;;4.40;;
57327;SDS011;43162;51.040;18.244;2024-02-23T07:34:49;7.90;;;5.30;;
57327;SDS011;43162;51.040;18.244;2024-02-23T07:37:15;7.40;;;5.40;;
57327;SDS011;43162;51.040;18.244;2024-02-23T07:39:40;8.50;;;5.80;;
57327;SDS011;43162;51.040;18.244;2024-02-23T07:42:06;8.80;;;5.60;;
57327;SDS011;43162;51.040;18.244;2024-02-23T07:44:34;7.40;;;5.10;;
57327;SDS011;43162;51.040;18.244;2024-02-23T07:46:59;10.20;;;5.60;;
57327;SDS011;43162;51.040;18.244;2024-02-23T07:49:25;9.00;;;5.60;;
57327;SDS011;43162;51.040;18.244;2024-02-23T07:51:53;6.90;;;5.80;;
57327;SDS011;43162;51.040;18.244;2024-02-23T07:54:19;6.60;;;4.90;;
57327;SDS011;43162;51.040;18.244;2024-02-23T07:56:45;9.70;;;5.80;;
57327;SDS011;43162;51.040;18.244;2024-02-23T07:59:10;10.50;;;4.70;;
57327;SDS011;43162;51.040;18.244;2024-02-23T08:01:36;5.20;;;3.90;;
57327;SDS011;43162;51.040;18.244;2024-02-23T08:04:01;7.10;;;4.40;;
57327;SDS011;43162;51.040;18.244;2024-02-23T08:06:28;6.30;;;4.40;;
57327;SDS011;43162;51.040;18.244;2024-02-23T08:08:54;5.10;;;4.20;;
57327;SDS011;43162;51.040;18.244;2024-02-23T08:11:20;7.50;;;4.60;;
57327;SDS011;43162;51.040;18.244;2024-02-23T08:13:46;7.50;;;5.30;;
57327;SDS011;43162;51.040;18.244;2024-02-23T08:16:11;11.80;;;10.40;;
57327;SDS011;43162;51.040;18.244;2024-02-23T08:18:37;8.40;;;4.70;;
57327;SDS011;43162;51.040;18.244;2024-02-23T08:21:03;13.90;;;6.90;;
57327;SDS011;43162;51.040;18.244;2024-02-23T08:23:31;25.30;;;10.00;;
57327;SDS011;43162;51.040;18.244;2024-02-23T08:25:56;34.10;;;10.30;;
57327;SDS011;43162;51.040;18.244;2024-02-23T08:28:23;15.90;;;7.30;;
57327;SDS011;43162;51.040;18.244;2024-02-23T08:30:49;16.80;;;7.30;;
57327;SDS011;43162;51.040;18.244;2024-02-23T08:33:15;18.00;;;7.80;;
57327;SDS011;43162;51.040;18.244;2024-02-23T08:35:41;13.90;;;7.00;;
57327;SDS011;43162;51.040;18.244;2024-02-23T08:38:06;15.20;;;8.00;;
57327;SDS011;43162;51.040;18.244;2024-02-23T08:40:32;20.80;;;8.90;;
57327;SDS011;43162;51.040;18.244;2024-02-23T08:42:58;14.90;;;7.30;;
57327;SDS011;43162;51.040;18.244;2024-02-23T08:45:23;8.80;;;5.10;;
57327;SDS011;43162;51.040;18.244;2024-02-23T08:47:49;10.00;;;5.90;;
57327;SDS011;43162;51.040;18.244;2024-02-23T08:50:14;15.00;;;6.40;;
57327;SDS011;43162;51.040;18.244;2024-02-23T08:52:40;10.30;;;5.40;;
57327;SDS011;43162;51.040;18.244;2024-02-23T08:55:05;16.40;;;5.70;;
57327;SDS011;43162;51.040;18.244;2024-02-23T08:57:31;10.10;;;5.50;;
57327;SDS011;43162;51.040;18.244;2024-02-23T08:59:57;10.00;;;5.30;;
57327;SDS011;43162;51.040;18.244;2024-02-23T09:02:23;9.00;;;4.90;;
57327;SDS011;43162;51.040;18.244;2024-02-23T09:04:49;12.80;;;6.70;;
57327;SDS011;43162;51.040;18.244;2024-02-23T09:07:15;8.50;;;5.10;;
57327;SDS011;43162;51.040;18.244;2024-02-23T09:09:40;8.80;;;4.90;;
57327;SDS011;43162;51.040;18.244;2024-02-23T09:12:06;7.10;;;4.60;;
57327;SDS011;43162;51.040;18.244;2024-02-23T09:14:36;7.00;;;5.20;;
57327;SDS011;43162;51.040;18.244;2024-02-23T09:17:03;7.40;;;5.60;;
57327;SDS011;43162;51.040;18.244;2024-02-23T09:19:31;7.80;;;4.90;;
57327;SDS011;43162;51.040;18.244;2024-02-23T09:21:56;8.60;;;4.70;;
57327;SDS011;43162;51.040;18.244;2024-02-23T09:24:22;8.20;;;5.00;;
57327;SDS011;43162;51.040;18.244;2024-02-23T09:26:47;4.40;;;3.40;;
57327;SDS011;43162;51.040;18.244;2024-02-23T09:29:13;4.20;;;3.40;;
57327;SDS011;43162;51.040;18.244;2024-02-23T09:31:39;4.60;;;3.40;;
57327;SDS011;43162;51.040;18.244;2024-02-23T09:34:05;4.40;;;2.90;;
57327;SDS011;43162;51.040;18.244;2024-02-23T09:36:30;5.20;;;3.10;;
57327;SDS011;43162;51.040;18.244;2024-02-23T09:38:56;4.20;;;2.50;;
57327;SDS011;43162;51.040;18.244;2024-02-23T09:41:22;5.40;;;3.70;;
57327;SDS011;43162;51.040;18.244;2024-02-23T09:43:48;5.30;;;3.40;;
57327;SDS011;43162;51.040;18.244;2024-02-23T09:46:17;7.60;;;3.80;;
57327;SDS011;43162;51.040;18.244;2024-02-23T09:48:44;4.70;;;3.10;;
57327;SDS011;43162;51.040;18.244;2024-02-23T09:51:10;6.40;;;2.50;;
57327;SDS011;43162;51.040;18.244;2024-02-23T09:53:38;4.30;;;3.00;;
57327;SDS011;43162;51.040;18.244;2024-02-23T09:56:04;6.70;;;2.70;;
57327;SDS011;43162;51.040;18.244;2024-02-23T09:58:31;6.30;;;3.00;;
57327;SDS011;43162;51.040;18.244;2024-02-23T10:00:58;6.10;;;2.90;;
57327;SDS011;43162;51.040;18.244;2024-02-23T10:03:27;6.50;;;2.40;;
57327;SDS011;43162;51.040;18.244;2024-02-23T10:05:56;5.80;;;2.70;;
57327;SDS011;43162;51.040;18.244;2024-02-23T10:08:22;6.70;;;3.00;;
57327;SDS011;43162;51.040;18.244;2024-02-23T10:10:48;4.60;;;2.50;;
57327;SDS011;43162;51.040;18.244;2024-02-23T10:13:20;5.80;;;2.90;;
57327;SDS011;43162;51.040;18.244;2024-02-23T10:15:47;3.30;;;2.10;;
57327;SDS011;43162;51.040;18.244;2024-02-23T10:18:13;3.30;;;1.60;;
57327;SDS011;43162;51.040;18.244;2024-02-23T10:20:40;2.50;;;1.90;;
57327;SDS011;43162;51.040;18.244;2024-02-23T10:23:05;4.00;;;1.70;;
57327;SDS011;43162;51.040;18.244;2024-02-23T10:25:33;4.00;;;2.10;;
57327;SDS011;43162;51.040;18.244;2024-02-23T10:28:01;4.40;;;1.90;;
57327;SDS011;43162;51.040;18.244;2024-02-23T10:30:27;4.60;;;1.40;;
57327;SDS011;43162;51.040;18.244;2024-02-23T10:32:55;3.30;;;1.50;;
57327;SDS011;43162;51.040;18.244;2024-02-23T10:35:21;3.40;;;1.90;;
57327;SDS011;43162;51.040;18.244;2024-02-23T10:37:48;3.50;;;2.00;;
57327;SDS011;43162;51.040;18.244;2024-02-23T10:40:21;3.60;;;1.90;;
57327;SDS011;43162;51.040;18.244;2024-02-23T10:42:48;3.20;;;1.70;;
57327;SDS011;43162;51.040;18.244;2024-02-23T10:45:16;2.50;;;1.50;;
57327;SDS011;43162;51.040;18.244;2024-02-23T10:47:43;4.70;;;1.90;;
57327;SDS011;43162;51.040;18.244;2024-02-23T10:50:09;3.30;;;1.70;;
57327;SDS011;43162;51.040;18.244;2024-02-23T10:52:36;3.10;;;1.50;;
57327;SDS011;43162;51.040;18.244;2024-02-23T10:55:03;5.00;;;1.70;;
57327;SDS011;43162;51.040;18.244;2024-02-23T10:57:30;3.60;;;1.80;;
57327;SDS011;43162;51.040;18.244;2024-02-23T10:59:57;4.10;;;2.00;;
57327;SDS011;43162;51.040;18.244;2024-02-23T11:02:23;3.20;;;2.30;;
57327;SDS011;43162;51.040;18.244;2024-02-23T11:04:50;3.10;;;1.80;;
57327;SDS011;43162;51.040;18.244;2024-02-23T11:07:18;3.70;;;2.00;;
57327;SDS011;43162;51.040;18.244;2024-02-23T11:09:54;4.00;;;2.00;;
57327;SDS011;43162;51.040;18.244;2024-02-23T11:12:24;3.40;;;1.90;;
57327;SDS011;43162;51.040;18.244;2024-02-23T11:14:50;3.80;;;2.10;;
57327;SDS011;43162;51.040;18.244;2024-02-23T11:17:19;4.10;;;2.00;;
57327;SDS011;43162;51.040;18.244;2024-02-23T11:19:49;4.80;;;1.90;;
57327;SDS011;43162;51.040;18.244;2024-02-23T11:22:23;3.50;;;2.20;;
57327;SDS011;43162;51.040;18.244;2024-02-23T11:24:50;4.80;;;2.00;;
57327;SDS011;43162;51.040;18.244;2024-02-23T11:27:16;3.00;;;2.00;;
57327;SDS011;43162;51.040;18.244;2024-02-23T11:29:45;3.30;;;2.10;;
57327;SDS011;43162;51.040;18.244;2024-02-23T11:32:13;4.50;;;2.00;;
57327;SDS011;43162;51.040;18.244;2024-02-23T11:34:39;4.90;;;2.10;;
57327;SDS011;43162;51.040;18.244;2024-02-23T11:37:11;3.70;;;1.60;;
57327;SDS011;43162;51.040;18.244;2024-02-23T11:39:38;4.30;;;1.80;;
57327;SDS011;43162;51.040;18.244;2024-02-23T11:42:06;3.60;;;1.60;;
57327;SDS011;43162;51.040;18.244;2024-02-23T11:44:32;2.70;;;1.70;;
57327;SDS011;43162;51.040;18.244;2024-02-23T11:46:58;1.80;;;1.50;;
57327;SDS011;43162;51.040;18.244;2024-02-23T11:49:31;2.20;;;1.50;;
57327;SDS011;43162;51.040;18.244;2024-02-23T11:51:56;3.30;;;1.00;;
57327;SDS011;43162;51.040;18.244;2024-02-23T11:54:22;3.10;;;1.50;;
57327;SDS011;43162;51.040;18.244;2024-02-23T11:56:48;3.30;;;1.30;;
57327;SDS011;43162;51.040;18.244;2024-02-23T11:59:15;2.30;;;1.00;;
57327;SDS011;43162;51.040;18.244;2024-02-23T12:01:41;3.60;;;1.70;;
57327;SDS011;43162;51.040;18.244;2024-02-23T12:04:07;2.50;;;1.30;;
57327;SDS011;43162;51.040;18.244;2024-02-23T12:06:33;1.20;;;1.00;;
57327;SDS011;43162;51.040;18.244;2024-02-23T12:08:59;3.50;;;1.10;;
57327;SDS011;43162;51.040;18.244;2024-02-23T12:11:26;2.90;;;1.00;;
57327;SDS011;43162;51.040;18.244;2024-02-23T12:13:52;3.00;;;1.50;;
57327;SDS011;43162;51.040;18.244;2024-02-23T12:16:18;6.40;;;1.20;;
57327;SDS011;43162;51.040;18.244;2024-02-23T12:18:46;2.60;;;1.00;;
57327;SDS011;43162;51.040;18.244;2024-02-23T12:21:18;1.50;;;0.60;;
57327;SDS011;43162;51.040;18.244;2024-02-23T12:23:45;2.20;;;1.10;;
57327;SDS011;43162;51.040;18.244;2024-02-23T12:26:14;4.10;;;1.10;;
57327;SDS011;43162;51.040;18.244;2024-02-23T12:28:41;2.90;;;1.00;;
57327;SDS011;43162;51.040;18.244;2024-02-23T12:31:07;2.80;;;1.30;;
57327;SDS011;43162;51.040;18.244;2024-02-23T12:33:35;3.30;;;0.80;;
57327;SDS011;43162;51.040;18.244;2024-02-23T12:36:03;6.50;;;1.00;;
57327;SDS011;43162;51.040;18.244;2024-02-23T12:38:30;4.20;;;1.30;;
57327;SDS011;43162;51.040;18.244;2024-02-23T12:40:56;2.00;;;0.90;;
57327;SDS011;43162;51.040;18.244;2024-02-23T12:43:22;3.10;;;1.00;;
57327;SDS011;43162;51.040;18.244;2024-02-23T12:45:50;5.30;;;0.90;;
57327;SDS011;43162;51.040;18.244;2024-02-23T12:48:16;2.20;;;0.70;;
57327;SDS011;43162;51.040;18.244;2024-02-23T12:50:43;4.50;;;1.00;;
57327;SDS011;43162;51.040;18.244;2024-02-23T12:53:30;1.80;;;1.10;;
57327;SDS011;43162;51.040;18.244;2024-02-23T12:56:00;2.10;;;0.70;;
57327;SDS011;43162;51.040;18.244;2024-02-23T12:58:27;3.90;;;0.80;;
57327;SDS011;43162;51.040;18.244;2024-02-23T13:00:53;2.60;;;1.10;;
57327;SDS011;43162;51.040;18.244;2024-02-23T13:03:19;3.30;;;1.30;;
57327;SDS011;43162;51.040;18.244;2024-02-23T13:05:44;3.60;;;1.30;;
57327;SDS011;43162;51.040;18.244;2024-02-23T13:08:09;4.30;;;2.40;;
57327;SDS011;43162;51.040;18.244;2024-02-23T13:10:35;7.30;;;3.40;;
57327;SDS011;43162;51.040;18.244;2024-02-23T13:13:01;9.60;;;5.60;;
57327;SDS011;43162;51.040;18.244;2024-02-23T13:15:26;16.40;;;7.90;;
57327;SDS011;43162;51.040;18.244;2024-02-23T13:17:52;10.90;;;5.90;;
57327;SDS011;43162;51.040;18.244;2024-02-23T13:20:18;13.00;;;5.50;;
57327;SDS011;43162;51.040;18.244;2024-02-23T13:22:44;8.10;;;3.60;;
57327;SDS011;43162;51.040;18.244;2024-02-23T13:25:09;8.70;;;3.20;;
57327;SDS011;43162;51.040;18.244;2024-02-23T13:27:35;5.70;;;2.20;;
57327;SDS011;43162;51.040;18.244;2024-02-23T13:30:01;4.00;;;1.90;;
57327;SDS011;43162;51.040;18.244;2024-02-23T13:32:28;3.50;;;1.50;;
57327;SDS011;43162;51.040;18.244;2024-02-23T13:34:53;4.00;;;1.30;;
57327;SDS011;43162;51.040;18.244;2024-02-23T13:37:19;3.40;;;2.00;;
57327;SDS011;43162;51.040;18.244;2024-02-23T13:39:44;8.90;;;4.30;;
57327;SDS011;43162;51.040;18.244;2024-02-23T13:42:10;7.10;;;4.30;;
57327;SDS011;43162;51.040;18.244;2024-02-23T13:44:36;11.70;;;4.90;;
57327;SDS011;43162;51.040;18.244;2024-02-23T13:47:02;15.50;;;5.80;;
57327;SDS011;43162;51.040;18.244;2024-02-23T13:49:28;18.70;;;7.30;;
57327;SDS011;43162;51.040;18.244;2024-02-23T13:51:53;17.80;;;7.50;;
57327;SDS011;43162;51.040;18.244;2024-02-23T13:54:19;17.80;;;7.70;;
57327;SDS011;43162;51.040;18.244;2024-02-23T13:56:45;19.90;;;7.60;;
57327;SDS011;43162;51.040;18.244;2024-02-23T13:59:11;20.90;;;6.70;;
57327;SDS011;43162;51.040;18.244;2024-02-23T14:01:36;14.40;;;5.70;;
57327;SDS011;43162;51.040;18.244;2024-02-23T14:04:05;14.20;;;6.60;;
57327;SDS011;43162;51.040;18.244;2024-02-23T14:06:31;16.00;;;7.20;;
57327;SDS011;43162;51.040;18.244;2024-02-23T14:08:57;16.80;;;7.30;;
57327;SDS011;43162;51.040;18.244;2024-02-23T14:11:23;18.20;;;7.60;;
57327;SDS011;43162;51.040;18.244;2024-02-23T14:13:48;21.20;;;9.00;;
57327;SDS011;43162;51.040;18.244;2024-02-23T14:16:14;26.50;;;12.00;;
57327;SDS011;43162;51.040;18.244;2024-02-23T14:18:40;23.00;;;11.40;;
57327;SDS011;43162;51.040;18.244;2024-02-23T14:21:07;23.20;;;11.60;;
57327;SDS011;43162;51.040;18.244;2024-02-23T14:23:33;22.90;;;12.40;;